sensor_id;sensor_type;location;lat;lon;timestamp;temperature;humidity
59556;DHT22;45374;52.746;6.304;2023-11-19T00:01:36;11.90;99.90
59556;DHT22;45374;52.746;6.304;2023-11-19T00:04:02;11.90;99.90
59556;DHT22;45374;52.746;6.304;2023-11-19T00:06:30;11.90;99.90
59556;DHT22;45374;52.746;6.304;2023-11-19T00:08:55;12.00;99.90
59556;DHT22;45374;52.746;6.304;2023-11-19T00:11:21;12.00;99.90
59556;DHT22;45374;52.746;6.304;2023-11-19T00:13:46;12.10;99.90
59556;DHT22;45374;52.746;6.304;2023-11-19T00:16:12;12.00;99.90
59556;DHT22;45374;52.746;6.304;2023-11-19T00:18:37;12.00;99.90
59556;DHT22;45374;52.746;6.304;2023-11-19T00:21:03;12.00;99.90
59556;DHT22;45374;52.746;6.304;2023-11-19T00:23:29;12.00;99.90
59556;DHT22;45374;52.746;6.304;2023-11-19T00:25:54;12.00;99.90
59556;DHT22;45374;52.746;6.304;2023-11-19T00:28:20;12.00;99.90
59556;DHT22;45374;52.746;6.304;2023-11-19T00:30:45;12.10;99.90
59556;DHT22;45374;52.746;6.304;2023-11-19T00:33:11;12.10;99.90
59556;DHT22;45374;52.746;6.304;2023-11-19T00:35:36;12.10;99.90
59556;DHT22;45374;52.746;6.304;2023-11-19T00:38:02;12.10;99.90
59556;DHT22;45374;52.746;6.304;2023-11-19T00:40:29;12.10;99.90
59556;DHT22;45374;52.746;6.304;2023-11-19T00:42:55;12.10;99.90
59556;DHT22;45374;52.746;6.304;2023-11-19T00:45:20;12.10;99.90
59556;DHT22;45374;52.746;6.304;2023-11-19T00:47:46;12.10;99.90
59556;DHT22;45374;52.746;6.304;2023-11-19T00:50:11;12.10;99.90
59556;DHT22;45374;52.746;6.304;2023-11-19T00:52:38;12.00;99.90
59556;DHT22;45374;52.746;6.304;2023-11-19T00:55:04;12.10;99.90
59556;DHT22;45374;52.746;6.304;2023-11-19T00:57:31;12.00;99.90
59556;DHT22;45374;52.746;6.304;2023-11-19T00:59:59;12.10;99.90
59556;DHT22;45374;52.746;6.304;2023-11-19T01:02:24;12.10;99.90
59556;DHT22;45374;52.746;6.304;2023-11-19T01:04:50;12.10;99.90
59556;DHT22;45374;52.746;6.304;2023-11-19T01:07:16;12.00;99.90
59556;DHT22;45374;52.746;6.304;2023-11-19T01:09:42;12.10;99.90
59556;DHT22;45374;52.746;6.304;2023-11-19T01:12:08;12.10;99.90
59556;DHT22;45374;52.746;6.304;2023-11-19T01:14:34;12.10;99.90
59556;DHT22;45374;52.746;6.304;2023-11-19T01:17:01;12.20;99.90
59556;DHT22;45374;52.746;6.304;2023-11-19T01:19:27;12.10;99.90
59556;DHT22;45374;52.746;6.304;2023-11-19T01:21:54;12.10;99.90
59556;DHT22;45374;52.746;6.304;2023-11-19T01:24:20;12.10;99.90
59556;DHT22;45374;52.746;6.304;2023-11-19T01:26:46;12.20;99.90
59556;DHT22;45374;52.746;6.304;2023-11-19T01:29:15;12.20;99.90
59556;DHT22;45374;52.746;6.304;2023-11-19T01:31:45;12.10;99.90
59556;DHT22;45374;52.746;6.304;2023-11-19T01:34:16;12.10;99.90
59556;DHT22;45374;52.746;6.304;2023-11-19T01:36:42;12.20;99.90
59556;DHT22;45374;52.746;6.304;2023-11-19T01:39:07;12.20;99.90
59556;DHT22;45374;52.746;6.304;2023-11-19T01:41:36;12.10;99.90
59556;DHT22;45374;52.746;6.304;2023-11-19T01:44:02;12.10;99.90
59556;DHT22;45374;52.746;6.304;2023-11-19T01:46:28;12.20;99.90
59556;DHT22;45374;52.746;6.304;2023-11-19T01:48:55;12.20;99.90
59556;DHT22;45374;52.746;6.304;2023-11-19T01:51:21;12.10;99.90
59556;DHT22;45374;52.746;6.304;2023-11-19T01:53:48;12.10;99.90
59556;DHT22;45374;52.746;6.304;2023-11-19T01:56:15;12.10;99.90
59556;DHT22;45374;52.746;6.304;2023-11-19T01:58:42;12.10;99.90
59556;DHT22;45374;52.746;6.304;2023-11-19T02:01:09;12.10;99.90
59556;DHT22;45374;52.746;6.304;2023-11-19T02:03:36;12.10;99.90
59556;DHT22;45374;52.746;6.304;2023-11-19T02:06:03;12.10;99.90
59556;DHT22;45374;52.746;6.304;2023-11-19T02:08:29;12.10;99.90
59556;DHT22;45374;52.746;6.304;2023-11-19T02:10:55;12.10;99.90
59556;DHT22;45374;52.746;6.304;2023-11-19T02:13:26;12.10;99.90
59556;DHT22;45374;52.746;6.304;2023-11-19T02:15:52;12.10;99.90
59556;DHT22;45374;52.746;6.304;2023-11-19T02:18:24;12.10;99.90
59556;DHT22;45374;52.746;6.304;2023-11-19T02:20:54;12.10;99.90
59556;DHT22;45374;52.746;6.304;2023-11-19T02:23:20;12.10;99.90
59556;DHT22;45374;52.746;6.304;2023-11-19T02:26:02;12.10;99.90
59556;DHT22;45374;52.746;6.304;2023-11-19T02:28:29;12.20;99.90
59556;DHT22;45374;52.746;6.304;2023-11-19T02:30:54;12.10;99.90
59556;DHT22;45374;52.746;6.304;2023-11-19T02:33:20;12.20;99.90
59556;DHT22;45374;52.746;6.304;2023-11-19T02:35:45;12.10;99.90
59556;DHT22;45374;52.746;6.304;2023-11-19T02:38:11;12.10;99.90
59556;DHT22;45374;52.746;6.304;2023-11-19T02:40:39;12.10;99.90
59556;DHT22;45374;52.746;6.304;2023-11-19T02:43:04;12.10;99.90
59556;DHT22;45374;52.746;6.304;2023-11-19T02:45:30;12.10;99.90
59556;DHT22;45374;52.746;6.304;2023-11-19T02:47:56;12.00;99.90
59556;DHT22;45374;52.746;6.304;2023-11-19T02:50:22;12.00;99.90
59556;DHT22;45374;52.746;6.304;2023-11-19T02:52:53;12.00;99.90
59556;DHT22;45374;52.746;6.304;2023-11-19T02:55:19;12.00;99.90
59556;DHT22;45374;52.746;6.304;2023-11-19T02:57:45;11.90;99.90
59556;DHT22;45374;52.746;6.304;2023-11-19T03:00:18;12.00;99.90
59556;DHT22;45374;52.746;6.304;2023-11-19T03:02:44;11.90;99.90
59556;DHT22;45374;52.746;6.304;2023-11-19T03:05:12;11.90;99.90
59556;DHT22;45374;52.746;6.304;2023-11-19T03:07:40;11.90;99.90
59556;DHT22;45374;52.746;6.304;2023-11-19T03:10:08;11.90;99.90
59556;DHT22;45374;52.746;6.304;2023-11-19T03:12:34;11.90;99.90
59556;DHT22;45374;52.746;6.304;2023-11-19T03:15:01;11.90;99.90
59556;DHT22;45374;52.746;6.304;2023-11-19T03:17:27;12.00;99.90
59556;DHT22;45374;52.746;6.304;2023-11-19T03:19:52;12.00;99.90
59556;DHT22;45374;52.746;6.304;2023-11-19T03:22:19;12.00;99.90
59556;DHT22;45374;52.746;6.304;2023-11-19T03:24:46;12.00;99.90
59556;DHT22;45374;52.746;6.304;2023-11-19T03:27:12;12.10;99.90
59556;DHT22;45374;52.746;6.304;2023-11-19T03:29:37;12.20;99.90
59556;DHT22;45374;52.746;6.304;2023-11-19T03:32:04;12.20;99.90
59556;DHT22;45374;52.746;6.304;2023-11-19T03:34:30;12.10;99.90
59556;DHT22;45374;52.746;6.304;2023-11-19T03:36:55;12.10;99.90
59556;DHT22;45374;52.746;6.304;2023-11-19T03:39:22;12.20;99.90
59556;DHT22;45374;52.746;6.304;2023-11-19T03:41:51;12.20;99.90
59556;DHT22;45374;52.746;6.304;2023-11-19T03:44:16;12.10;99.90
59556;DHT22;45374;52.746;6.304;2023-11-19T03:46:43;12.10;99.90
59556;DHT22;45374;52.746;6.304;2023-11-19T03:49:08;12.10;99.90
59556;DHT22;45374;52.746;6.304;2023-11-19T03:51:34;12.10;99.90
59556;DHT22;45374;52.746;6.304;2023-11-19T03:54:00;12.10;99.90
59556;DHT22;45374;52.746;6.304;2023-11-19T03:56:26;12.10;99.90
59556;DHT22;45374;52.746;6.304;2023-11-19T03:58:52;12.10;99.90
59556;DHT22;45374;52.746;6.304;2023-11-19T04:01:18;12.10;99.90
59556;DHT22;45374;52.746;6.304;2023-11-19T04:03:43;12.10;99.90
59556;DHT22;45374;52.746;6.304;2023-11-19T04:06:09;12.20;99.90
59556;DHT22;45374;52.746;6.304;2023-11-19T04:08:35;12.20;99.90
59556;DHT22;45374;52.746;6.304;2023-11-19T04:11:03;12.20;99.90
59556;DHT22;45374;52.746;6.304;2023-11-19T04:13:30;12.10;99.90
59556;DHT22;45374;52.746;6.304;2023-11-19T04:15:55;12.00;99.90
59556;DHT22;45374;52.746;6.304;2023-11-19T04:18:21;12.00;99.90
59556;DHT22;45374;52.746;6.304;2023-11-19T04:20:46;11.90;99.90
59556;DHT22;45374;52.746;6.304;2023-11-19T04:23:12;11.90;99.90
59556;DHT22;45374;52.746;6.304;2023-11-19T04:25:37;11.80;99.90
59556;DHT22;45374;52.746;6.304;2023-11-19T04:28:03;11.80;99.90
59556;DHT22;45374;52.746;6.304;2023-11-19T04:30:29;11.70;99.90
59556;DHT22;45374;52.746;6.304;2023-11-19T04:32:57;11.60;99.90
59556;DHT22;45374;52.746;6.304;2023-11-19T04:35:22;11.60;99.90
59556;DHT22;45374;52.746;6.304;2023-11-19T04:37:48;11.60;99.90
59556;DHT22;45374;52.746;6.304;2023-11-19T04:40:14;11.50;99.90
59556;DHT22;45374;52.746;6.304;2023-11-19T04:42:40;11.50;99.90
59556;DHT22;45374;52.746;6.304;2023-11-19T04:45:06;11.50;99.90
59556;DHT22;45374;52.746;6.304;2023-11-19T04:47:36;11.50;99.90
59556;DHT22;45374;52.746;6.304;2023-11-19T04:50:02;11.50;99.90
59556;DHT22;45374;52.746;6.304;2023-11-19T04:52:28;11.50;99.90
59556;DHT22;45374;52.746;6.304;2023-11-19T04:54:54;11.60;99.90
59556;DHT22;45374;52.746;6.304;2023-11-19T04:57:20;11.60;99.90
59556;DHT22;45374;52.746;6.304;2023-11-19T04:59:45;11.60;99.90
59556;DHT22;45374;52.746;6.304;2023-11-19T05:02:11;11.70;99.90
59556;DHT22;45374;52.746;6.304;2023-11-19T05:04:36;11.70;99.90
59556;DHT22;45374;52.746;6.304;2023-11-19T05:07:04;11.70;99.90
59556;DHT22;45374;52.746;6.304;2023-11-19T05:09:30;11.80;99.90
59556;DHT22;45374;52.746;6.304;2023-11-19T05:11:56;11.80;99.90
59556;DHT22;45374;52.746;6.304;2023-11-19T05:14:21;11.80;99.90
59556;DHT22;45374;52.746;6.304;2023-11-19T05:16:47;11.80;99.90
59556;DHT22;45374;52.746;6.304;2023-11-19T05:19:13;11.80;99.90
59556;DHT22;45374;52.746;6.304;2023-11-19T05:21:42;11.90;99.90
59556;DHT22;45374;52.746;6.304;2023-11-19T05:24:08;11.90;99.90
59556;DHT22;45374;52.746;6.304;2023-11-19T05:26:33;11.90;99.90
59556;DHT22;45374;52.746;6.304;2023-11-19T05:28:59;11.90;99.90
59556;DHT22;45374;52.746;6.304;2023-11-19T05:31:25;11.80;99.90
59556;DHT22;45374;52.746;6.304;2023-11-19T05:33:50;11.80;99.90
59556;DHT22;45374;52.746;6.304;2023-11-19T05:36:16;11.70;99.90
59556;DHT22;45374;52.746;6.304;2023-11-19T05:38:41;11.70;99.90
59556;DHT22;45374;52.746;6.304;2023-11-19T05:41:07;11.80;99.90
59556;DHT22;45374;52.746;6.304;2023-11-19T05:43:33;11.70;99.90
59556;DHT22;45374;52.746;6.304;2023-11-19T05:45:58;11.80;99.90
59556;DHT22;45374;52.746;6.304;2023-11-19T05:48:26;11.80;99.90
59556;DHT22;45374;52.746;6.304;2023-11-19T05:50:52;11.80;99.90
59556;DHT22;45374;52.746;6.304;2023-11-19T05:53:18;11.80;99.90
59556;DHT22;45374;52.746;6.304;2023-11-19T05:55:44;11.70;99.90
59556;DHT22;45374;52.746;6.304;2023-11-19T05:58:11;11.70;99.90
59556;DHT22;45374;52.746;6.304;2023-11-19T06:00:41;11.70;99.90
59556;DHT22;45374;52.746;6.304;2023-11-19T06:03:08;11.60;99.90
59556;DHT22;45374;52.746;6.304;2023-11-19T06:05:34;11.50;99.90
59556;DHT22;45374;52.746;6.304;2023-11-19T06:08:00;11.40;99.90
59556;DHT22;45374;52.746;6.304;2023-11-19T06:10:25;11.30;99.90
59556;DHT22;45374;52.746;6.304;2023-11-19T06:12:59;11.30;99.90
59556;DHT22;45374;52.746;6.304;2023-11-19T06:15:28;11.30;99.90
59556;DHT22;45374;52.746;6.304;2023-11-19T06:17:54;11.30;99.90
59556;DHT22;45374;52.746;6.304;2023-11-19T06:20:20;11.30;99.90
59556;DHT22;45374;52.746;6.304;2023-11-19T06:22:46;11.20;99.90
59556;DHT22;45374;52.746;6.304;2023-11-19T06:25:12;11.20;99.90
59556;DHT22;45374;52.746;6.304;2023-11-19T06:27:40;11.20;99.90
59556;DHT22;45374;52.746;6.304;2023-11-19T06:30:07;11.20;99.90
59556;DHT22;45374;52.746;6.304;2023-11-19T06:32:32;11.30;99.90
59556;DHT22;45374;52.746;6.304;2023-11-19T06:34:58;11.30;99.90
59556;DHT22;45374;52.746;6.304;2023-11-19T06:37:23;11.40;99.90
59556;DHT22;45374;52.746;6.304;2023-11-19T06:39:49;11.40;99.90
59556;DHT22;45374;52.746;6.304;2023-11-19T06:42:14;11.50;99.90
59556;DHT22;45374;52.746;6.304;2023-11-19T06:44:40;11.40;99.90
59556;DHT22;45374;52.746;6.304;2023-11-19T06:47:06;11.50;99.90
59556;DHT22;45374;52.746;6.304;2023-11-19T06:49:32;11.50;99.90
59556;DHT22;45374;52.746;6.304;2023-11-19T06:51:58;11.60;99.90
59556;DHT22;45374;52.746;6.304;2023-11-19T06:54:24;11.50;99.90
59556;DHT22;45374;52.746;6.304;2023-11-19T06:56:49;11.60;99.90
59556;DHT22;45374;52.746;6.304;2023-11-19T06:59:15;11.50;99.90
59556;DHT22;45374;52.746;6.304;2023-11-19T07:01:40;11.40;99.90
59556;DHT22;45374;52.746;6.304;2023-11-19T07:04:11;11.40;99.90
59556;DHT22;45374;52.746;6.304;2023-11-19T07:06:36;11.30;99.90
59556;DHT22;45374;52.746;6.304;2023-11-19T07:09:03;11.40;99.90
59556;DHT22;45374;52.746;6.304;2023-11-19T07:11:39;11.40;99.90
59556;DHT22;45374;52.746;6.304;2023-11-19T07:14:05;11.40;99.90
59556;DHT22;45374;52.746;6.304;2023-11-19T07:16:34;11.40;99.90
59556;DHT22;45374;52.746;6.304;2023-11-19T07:19:03;11.30;99.90
59556;DHT22;45374;52.746;6.304;2023-11-19T07:21:29;11.30;99.90
59556;DHT22;45374;52.746;6.304;2023-11-19T07:23:57;11.30;99.90
59556;DHT22;45374;52.746;6.304;2023-11-19T07:26:23;11.20;99.90
59556;DHT22;45374;52.746;6.304;2023-11-19T07:28:49;11.20;99.90
59556;DHT22;45374;52.746;6.304;2023-11-19T07:31:16;11.20;99.90
59556;DHT22;45374;52.746;6.304;2023-11-19T07:33:41;11.20;99.90
59556;DHT22;45374;52.746;6.304;2023-11-19T07:36:10;11.10;99.90
59556;DHT22;45374;52.746;6.304;2023-11-19T07:38:36;11.10;99.90
59556;DHT22;45374;52.746;6.304;2023-11-19T07:41:02;11.10;99.90
59556;DHT22;45374;52.746;6.304;2023-11-19T07:43:28;11.20;99.90
59556;DHT22;45374;52.746;6.304;2023-11-19T07:45:53;11.20;99.90
59556;DHT22;45374;52.746;6.304;2023-11-19T07:48:19;11.20;99.90
59556;DHT22;45374;52.746;6.304;2023-11-19T07:50:49;11.20;99.90
59556;DHT22;45374;52.746;6.304;2023-11-19T07:53:19;11.30;99.90
59556;DHT22;45374;52.746;6.304;2023-11-19T07:55:44;11.30;99.90
59556;DHT22;45374;52.746;6.304;2023-11-19T07:58:11;11.30;99.90
59556;DHT22;45374;52.746;6.304;2023-11-19T08:00:38;11.30;99.90
59556;DHT22;45374;52.746;6.304;2023-11-19T08:03:04;11.40;99.90
59556;DHT22;45374;52.746;6.304;2023-11-19T08:05:31;11.40;99.90
59556;DHT22;45374;52.746;6.304;2023-11-19T08:07:56;11.50;99.90
59556;DHT22;45374;52.746;6.304;2023-11-19T08:10:22;11.50;99.90
59556;DHT22;45374;52.746;6.304;2023-11-19T08:12:48;11.50;99.90
59556;DHT22;45374;52.746;6.304;2023-11-19T08:15:14;11.50;99.90
59556;DHT22;45374;52.746;6.304;2023-11-19T08:17:41;11.40;99.90
59556;DHT22;45374;52.746;6.304;2023-11-19T08:20:08;11.50;99.90
59556;DHT22;45374;52.746;6.304;2023-11-19T08:22:37;11.50;99.90
59556;DHT22;45374;52.746;6.304;2023-11-19T08:25:05;11.50;99.90
59556;DHT22;45374;52.746;6.304;2023-11-19T08:27:31;11.60;99.90
59556;DHT22;45374;52.746;6.304;2023-11-19T08:29:56;11.60;99.90
59556;DHT22;45374;52.746;6.304;2023-11-19T08:32:26;11.50;99.90
59556;DHT22;45374;52.746;6.304;2023-11-19T08:34:52;11.50;99.90
59556;DHT22;45374;52.746;6.304;2023-11-19T08:37:17;11.50;99.90
59556;DHT22;45374;52.746;6.304;2023-11-19T08:39:49;11.50;99.90
59556;DHT22;45374;52.746;6.304;2023-11-19T08:42:15;11.40;99.90
59556;DHT22;45374;52.746;6.304;2023-11-19T08:44:41;11.40;99.90
59556;DHT22;45374;52.746;6.304;2023-11-19T08:47:12;11.40;99.90
59556;DHT22;45374;52.746;6.304;2023-11-19T08:49:39;11.40;99.90
59556;DHT22;45374;52.746;6.304;2023-11-19T08:52:05;11.50;99.90
59556;DHT22;45374;52.746;6.304;2023-11-19T08:54:32;11.50;99.90
59556;DHT22;45374;52.746;6.304;2023-11-19T08:56:58;11.50;99.90
59556;DHT22;45374;52.746;6.304;2023-11-19T08:59:25;11.60;99.90
59556;DHT22;45374;52.746;6.304;2023-11-19T09:01:50;11.60;99.90
59556;DHT22;45374;52.746;6.304;2023-11-19T09:04:16;11.70;99.90
59556;DHT22;45374;52.746;6.304;2023-11-19T09:06:41;11.70;99.90
59556;DHT22;45374;52.746;6.304;2023-11-19T09:09:08;11.70;99.90
59556;DHT22;45374;52.746;6.304;2023-11-19T09:11:33;11.70;99.90
59556;DHT22;45374;52.746;6.304;2023-11-19T09:13:59;11.70;99.90
59556;DHT22;45374;52.746;6.304;2023-11-19T09:16:24;11.80;99.90
59556;DHT22;45374;52.746;6.304;2023-11-19T09:18:50;11.80;99.90
59556;DHT22;45374;52.746;6.304;2023-11-19T09:21:16;11.80;99.90
59556;DHT22;45374;52.746;6.304;2023-11-19T09:23:41;11.90;99.90
59556;DHT22;45374;52.746;6.304;2023-11-19T09:26:08;11.90;99.90
59556;DHT22;45374;52.746;6.304;2023-11-19T09:28:36;11.90;99.90
59556;DHT22;45374;52.746;6.304;2023-11-19T09:31:02;12.00;99.90
59556;DHT22;45374;52.746;6.304;2023-11-19T09:33:30;12.10;99.90
59556;DHT22;45374;52.746;6.304;2023-11-19T09:35:56;12.10;99.90
59556;DHT22;45374;52.746;6.304;2023-11-19T09:38:23;12.20;99.90
59556;DHT22;45374;52.746;6.304;2023-11-19T09:40:48;12.20;99.90
59556;DHT22;45374;52.746;6.304;2023-11-19T09:43:15;12.10;99.90
59556;DHT22;45374;52.746;6.304;2023-11-19T09:45:48;12.10;99.90
59556;DHT22;45374;52.746;6.304;2023-11-19T09:48:17;12.10;99.90
59556;DHT22;45374;52.746;6.304;2023-11-19T09:50:45;12.10;99.90
59556;DHT22;45374;52.746;6.304;2023-11-19T09:53:12;12.00;99.90
59556;DHT22;45374;52.746;6.304;2023-11-19T09:55:38;12.00;99.90
59556;DHT22;45374;52.746;6.304;2023-11-19T09:58:03;12.00;99.90
59556;DHT22;45374;52.746;6.304;2023-11-19T10:00:30;12.00;99.90
59556;DHT22;45374;52.746;6.304;2023-11-19T10:02:56;12.00;99.90
59556;DHT22;45374;52.746;6.304;2023-11-19T10:05:23;12.00;99.90
59556;DHT22;45374;52.746;6.304;2023-11-19T10:07:50;12.00;99.90
59556;DHT22;45374;52.746;6.304;2023-11-19T10:10:16;12.00;99.90
59556;DHT22;45374;52.746;6.304;2023-11-19T10:12:45;11.90;99.90
59556;DHT22;45374;52.746;6.304;2023-11-19T10:15:19;11.90;99.90
59556;DHT22;45374;52.746;6.304;2023-11-19T10:17:45;11.90;99.90
59556;DHT22;45374;52.746;6.304;2023-11-19T10:20:11;11.80;99.90
59556;DHT22;45374;52.746;6.304;2023-11-19T10:22:39;11.80;99.90
59556;DHT22;45374;52.746;6.304;2023-11-19T10:25:27;11.80;99.90
59556;DHT22;45374;52.746;6.304;2023-11-19T10:27:52;11.80;99.90
59556;DHT22;45374;52.746;6.304;2023-11-19T10:30:25;11.80;99.90
59556;DHT22;45374;52.746;6.304;2023-11-19T10:33:14;11.70;99.90
59556;DHT22;45374;52.746;6.304;2023-11-19T10:35:57;11.70;99.90
59556;DHT22;45374;52.746;6.304;2023-11-19T10:38:26;11.70;99.90
59556;DHT22;45374;52.746;6.304;2023-11-19T10:40:52;11.80;99.90
59556;DHT22;45374;52.746;6.304;2023-11-19T10:43:18;11.80;99.90
59556;DHT22;45374;52.746;6.304;2023-11-19T10:45:44;11.70;99.90
59556;DHT22;45374;52.746;6.304;2023-11-19T10:48:11;11.70;99.90
59556;DHT22;45374;52.746;6.304;2023-11-19T10:50:39;11.70;99.90
59556;DHT22;45374;52.746;6.304;2023-11-19T10:53:06;11.70;99.90
59556;DHT22;45374;52.746;6.304;2023-11-19T10:55:37;11.70;99.90
59556;DHT22;45374;52.746;6.304;2023-11-19T10:58:06;11.70;99.90
59556;DHT22;45374;52.746;6.304;2023-11-19T11:00:56;11.70;99.90
59556;DHT22;45374;52.746;6.304;2023-11-19T11:03:25;11.70;99.90
59556;DHT22;45374;52.746;6.304;2023-11-19T11:05:52;11.70;99.90
59556;DHT22;45374;52.746;6.304;2023-11-19T11:08:19;11.70;99.90
59556;DHT22;45374;52.746;6.304;2023-11-19T11:10:54;11.70;99.90
59556;DHT22;45374;52.746;6.304;2023-11-19T11:13:22;11.70;99.90
59556;DHT22;45374;52.746;6.304;2023-11-19T11:15:49;11.70;99.90
59556;DHT22;45374;52.746;6.304;2023-11-19T11:18:14;11.70;99.90
59556;DHT22;45374;52.746;6.304;2023-11-19T11:20:41;11.70;99.90
59556;DHT22;45374;52.746;6.304;2023-11-19T11:26:04;11.80;99.90
59556;DHT22;45374;52.746;6.304;2023-11-19T11:29:03;11.90;99.90
59556;DHT22;45374;52.746;6.304;2023-11-19T11:34:41;11.80;99.90
59556;DHT22;45374;52.746;6.304;2023-11-19T11:39:34;11.80;99.90
59556;DHT22;45374;52.746;6.304;2023-11-19T11:45:03;11.70;99.90
59556;DHT22;45374;52.746;6.304;2023-11-19T11:50:14;11.70;99.90
59556;DHT22;45374;52.746;6.304;2023-11-19T11:55:33;12.10;99.90
59556;DHT22;45374;52.746;6.304;2023-11-19T11:58:00;12.10;99.90
59556;DHT22;45374;52.746;6.304;2023-11-19T12:00:30;12.20;99.90
59556;DHT22;45374;52.746;6.304;2023-11-19T12:02:59;12.30;99.90
59556;DHT22;45374;52.746;6.304;2023-11-19T12:05:24;12.20;99.90
59556;DHT22;45374;52.746;6.304;2023-11-19T12:08:00;12.20;99.90
59556;DHT22;45374;52.746;6.304;2023-11-19T12:10:28;12.10;99.90
59556;DHT22;45374;52.746;6.304;2023-11-19T12:13:00;12.10;99.90
59556;DHT22;45374;52.746;6.304;2023-11-19T12:15:26;12.00;99.90
59556;DHT22;45374;52.746;6.304;2023-11-19T12:17:54;12.00;99.90
59556;DHT22;45374;52.746;6.304;2023-11-19T12:20:26;12.10;99.90
59556;DHT22;45374;52.746;6.304;2023-11-19T12:22:53;12.10;99.90
59556;DHT22;45374;52.746;6.304;2023-11-19T12:25:19;12.10;99.90
59556;DHT22;45374;52.746;6.304;2023-11-19T12:27:47;12.10;99.90
59556;DHT22;45374;52.746;6.304;2023-11-19T12:30:16;12.20;99.90
59556;DHT22;45374;52.746;6.304;2023-11-19T12:32:43;12.20;99.90
59556;DHT22;45374;52.746;6.304;2023-11-19T12:35:10;12.20;99.90
59556;DHT22;45374;52.746;6.304;2023-11-19T12:42:39;12.10;99.90
59556;DHT22;45374;52.746;6.304;2023-11-19T12:45:05;12.10;99.90
59556;DHT22;45374;52.746;6.304;2023-11-19T12:47:31;12.10;99.90
59556;DHT22;45374;52.746;6.304;2023-11-19T12:49:57;12.10;99.90
59556;DHT22;45374;52.746;6.304;2023-11-19T12:52:23;12.00;99.90
59556;DHT22;45374;52.746;6.304;2023-11-19T12:54:49;12.10;99.90
59556;DHT22;45374;52.746;6.304;2023-11-19T12:57:15;12.10;99.90
59556;DHT22;45374;52.746;6.304;2023-11-19T12:59:41;12.00;99.90
59556;DHT22;45374;52.746;6.304;2023-11-19T13:02:08;12.00;99.90
59556;DHT22;45374;52.746;6.304;2023-11-19T13:04:34;12.00;99.90
59556;DHT22;45374;52.746;6.304;2023-11-19T13:07:00;12.00;99.90
59556;DHT22;45374;52.746;6.304;2023-11-19T13:09:27;12.10;99.90
59556;DHT22;45374;52.746;6.304;2023-11-19T13:11:54;12.10;99.90
59556;DHT22;45374;52.746;6.304;2023-11-19T13:14:21;12.10;99.90
59556;DHT22;45374;52.746;6.304;2023-11-19T13:16:46;12.10;99.90
59556;DHT22;45374;52.746;6.304;2023-11-19T13:19:13;12.10;99.90
59556;DHT22;45374;52.746;6.304;2023-11-19T13:21:41;12.10;99.90
59556;DHT22;45374;52.746;6.304;2023-11-19T13:24:07;12.00;99.90
59556;DHT22;45374;52.746;6.304;2023-11-19T13:26:32;12.10;99.90
59556;DHT22;45374;52.746;6.304;2023-11-19T13:28:58;12.10;99.90
59556;DHT22;45374;52.746;6.304;2023-11-19T13:31:24;12.10;99.90
59556;DHT22;45374;52.746;6.304;2023-11-19T13:33:50;12.00;99.90
59556;DHT22;45374;52.746;6.304;2023-11-19T13:36:16;11.90;99.90
59556;DHT22;45374;52.746;6.304;2023-11-19T13:38:42;11.90;99.90
59556;DHT22;45374;52.746;6.304;2023-11-19T13:41:09;11.80;99.90
59556;DHT22;45374;52.746;6.304;2023-11-19T13:43:36;11.80;99.90
59556;DHT22;45374;52.746;6.304;2023-11-19T13:46:02;11.70;99.90
59556;DHT22;45374;52.746;6.304;2023-11-19T13:48:28;11.60;99.90
59556;DHT22;45374;52.746;6.304;2023-11-19T13:50:55;11.60;99.90
59556;DHT22;45374;52.746;6.304;2023-11-19T13:53:21;11.50;99.90
59556;DHT22;45374;52.746;6.304;2023-11-19T13:55:46;11.50;99.90
59556;DHT22;45374;52.746;6.304;2023-11-19T13:58:13;11.40;99.90
59556;DHT22;45374;52.746;6.304;2023-11-19T14:00:38;11.40;99.90
59556;DHT22;45374;52.746;6.304;2023-11-19T14:03:04;11.40;99.90
59556;DHT22;45374;52.746;6.304;2023-11-19T14:05:30;11.40;99.90
59556;DHT22;45374;52.746;6.304;2023-11-19T14:07:56;11.30;99.90
59556;DHT22;45374;52.746;6.304;2023-11-19T14:10:23;11.30;99.90
59556;DHT22;45374;52.746;6.304;2023-11-19T14:12:48;11.30;99.90
59556;DHT22;45374;52.746;6.304;2023-11-19T14:15:15;11.30;99.90
59556;DHT22;45374;52.746;6.304;2023-11-19T14:17:44;11.30;99.90
59556;DHT22;45374;52.746;6.304;2023-11-19T14:20:09;11.30;99.90
59556;DHT22;45374;52.746;6.304;2023-11-19T14:22:42;11.30;99.90
59556;DHT22;45374;52.746;6.304;2023-11-19T14:25:11;11.30;99.90
59556;DHT22;45374;52.746;6.304;2023-11-19T14:27:38;11.30;99.90
59556;DHT22;45374;52.746;6.304;2023-11-19T14:30:08;11.30;99.90
59556;DHT22;45374;52.746;6.304;2023-11-19T14:32:40;11.30;99.90
59556;DHT22;45374;52.746;6.304;2023-11-19T14:35:08;11.30;99.90
59556;DHT22;45374;52.746;6.304;2023-11-19T14:37:33;11.30;99.90
59556;DHT22;45374;52.746;6.304;2023-11-19T14:40:00;11.30;99.90
59556;DHT22;45374;52.746;6.304;2023-11-19T14:42:27;11.30;99.90
59556;DHT22;45374;52.746;6.304;2023-11-19T14:44:52;11.30;99.90
59556;DHT22;45374;52.746;6.304;2023-11-19T14:47:19;11.30;99.90
59556;DHT22;45374;52.746;6.304;2023-11-19T14:49:45;11.40;99.90
59556;DHT22;45374;52.746;6.304;2023-11-19T14:52:11;11.40;99.90
59556;DHT22;45374;52.746;6.304;2023-11-19T14:54:37;11.30;99.90
59556;DHT22;45374;52.746;6.304;2023-11-19T14:57:04;11.30;99.90
59556;DHT22;45374;52.746;6.304;2023-11-19T14:59:29;11.30;99.90
59556;DHT22;45374;52.746;6.304;2023-11-19T15:01:55;11.30;99.90
59556;DHT22;45374;52.746;6.304;2023-11-19T15:04:20;11.30;99.90
59556;DHT22;45374;52.746;6.304;2023-11-19T15:06:46;11.30;99.90
59556;DHT22;45374;52.746;6.304;2023-11-19T15:09:11;11.30;99.90
59556;DHT22;45374;52.746;6.304;2023-11-19T15:11:46;11.30;99.90
59556;DHT22;45374;52.746;6.304;2023-11-19T15:14:15;11.30;99.90
59556;DHT22;45374;52.746;6.304;2023-11-19T15:16:42;11.30;99.90
59556;DHT22;45374;52.746;6.304;2023-11-19T15:19:08;11.30;99.90
59556;DHT22;45374;52.746;6.304;2023-11-19T15:21:34;11.30;99.90
59556;DHT22;45374;52.746;6.304;2023-11-19T15:24:00;11.30;99.90
59556;DHT22;45374;52.746;6.304;2023-11-19T15:26:26;11.30;99.90
59556;DHT22;45374;52.746;6.304;2023-11-19T15:28:51;11.30;99.90
59556;DHT22;45374;52.746;6.304;2023-11-19T15:31:22;11.30;99.90
59556;DHT22;45374;52.746;6.304;2023-11-19T15:33:47;11.30;99.90
59556;DHT22;45374;52.746;6.304;2023-11-19T15:36:13;11.20;99.90
59556;DHT22;45374;52.746;6.304;2023-11-19T15:38:40;11.20;99.90
59556;DHT22;45374;52.746;6.304;2023-11-19T15:41:05;11.10;99.90
59556;DHT22;45374;52.746;6.304;2023-11-19T15:43:33;11.10;99.90
59556;DHT22;45374;52.746;6.304;2023-11-19T15:45:58;11.10;99.90
59556;DHT22;45374;52.746;6.304;2023-11-19T15:48:24;11.00;99.90
59556;DHT22;45374;52.746;6.304;2023-11-19T15:50:51;11.00;99.90